Time;durP1;ratioP1;P1;durP2;ratioP2;P2;SDS_P1;SDS_P2;PMS_P1;PMS_P2;Temp;Humidity;BMP_temperature;BMP_pressure;BME280_temperature;BME280_humidity;BME280_pressure;Samples;Min_cycle;Max_cycle;Signal;HPM_P1;HPM_P2
2021/01/13 00:01:10;;;;;;;15.73;14.63;;;1.40;85.50;;;;;;5160027;28;20108;-74
2021/01/13 00:03:41;;;;;;;15.30;14.20;;;1.40;84.90;;;;;;5142724;28;20069;-73
2021/01/13 00:06:16;;;;;;;15.52;14.43;;;1.40;85.10;;;;;;5164222;28;20054;-74
2021/01/13 00:08:48;;;;;;;15.73;14.63;;;1.40;84.80;;;;;;5167695;28;20365;-73
2021/01/13 00:11:20;;;;;;;15.38;14.27;;;1.40;84.80;;;;;;5163603;28;20171;-74
2021/01/13 00:13:51;;;;;;;15.68;14.57;;;1.40;84.80;;;;;;5161830;28;20057;-74
2021/01/13 00:16:23;;;;;;;15.52;14.43;;;1.40;84.80;;;;;;5161764;28;20555;-74
2021/01/13 00:18:55;;;;;;;15.73;14.63;;;1.40;84.60;;;;;;5161173;28;20041;-74
2021/01/13 00:21:26;;;;;;;15.93;14.82;;;1.40;84.50;;;;;;5160534;28;20045;-74
2021/01/13 00:23:57;;;;;;;15.57;14.48;;;1.40;84.50;;;;;;5163383;28;20733;-74
2021/01/13 00:26:29;;;;;;;15.68;14.57;;;1.50;84.50;;;;;;5161230;28;20246;-74
2021/01/13 00:29:01;;;;;;;15.75;14.65;;;1.40;84.50;;;;;;5160025;28;20500;-73
2021/01/13 00:31:33;;;;;;;15.60;14.50;;;1.40;84.50;;;;;;5162207;28;20478;-74
2021/01/13 00:34:08;;;;;;;15.20;14.20;;;1.40;84.50;;;;;;5159788;28;20188;-75
2021/01/13 00:36:40;;;;;;;15.20;14.20;;;1.50;84.50;;;;;;5161846;28;20074;-75
2021/01/13 00:39:11;;;;;;;15.30;14.25;;;1.40;84.30;;;;;;5160760;28;20089;-75
2021/01/13 00:41:43;;;;;;;15.43;14.43;;;1.50;84.30;;;;;;5146444;28;20089;-75
2021/01/13 00:44:14;;;;;;;14.68;13.68;;;1.50;84.10;;;;;;5152151;28;20104;-75
2021/01/13 00:46:46;;;;;;;15.38;14.32;;;1.50;84.20;;;;;;5161992;28;20287;-74
2021/01/13 00:49:18;;;;;;;15.95;14.85;;;1.50;84.30;;;;;;5146721;28;20126;-76
2021/01/13 00:51:49;;;;;;;14.98;13.98;;;1.50;84.20;;;;;;5164007;28;20050;-76
2021/01/13 00:54:21;;;;;;;15.50;14.43;;;1.50;83.90;;;;;;5161743;28;20053;-76
2021/01/13 00:56:52;;;;;;;14.75;13.75;;;1.50;84.10;;;;;;5165269;28;20100;-75
2021/01/13 00:59:24;;;;;;;14.93;13.93;;;1.50;84.10;;;;;;5159145;28;20124;-75
2021/01/13 01:01:55;;;;;;;15.50;14.40;;;1.40;84.30;;;;;;5161291;28;20085;-76
2021/01/13 01:04:27;;;;;;;14.93;13.93;;;1.40;84.10;;;;;;5166872;28;20042;-75
2021/01/13 01:07:02;;;;;;;15.18;14.18;;;1.40;84.30;;;;;;5135096;28;20198;-75
2021/01/13 01:09:34;;;;;;;15.60;14.55;;;1.40;84.20;;;;;;5164861;28;20053;-75
2021/01/13 01:12:07;;;;;;;15.63;14.48;;;1.40;84.00;;;;;;5165091;28;20133;-75
2021/01/13 01:14:40;;;;;;;15.30;14.30;;;1.50;84.20;;;;;;5165818;28;20049;-75
2021/01/13 01:17:12;;;;;;;15.45;14.35;;;1.40;84.00;;;;;;5144640;28;20460;-75
2021/01/13 01:19:43;;;;;;;15.60;14.50;;;1.50;84.10;;;;;;5145366;28;20560;-74
2021/01/13 01:22:15;;;;;;;15.27;14.13;;;1.50;84.30;;;;;;5152964;28;20365;-74
2021/01/13 01:24:46;;;;;;;15.35;14.32;;;1.50;84.70;;;;;;5164840;28;20201;-73
2021/01/13 01:27:18;;;;;;;14.77;13.77;;;1.50;84.40;;;;;;5163737;28;20043;-75
2021/01/13 01:29:54;;;;;;;15.40;14.40;;;1.50;84.10;;;;;;5151974;28;20115;-75
2021/01/13 01:32:29;;;;;;;15.55;14.55;;;1.50;84.20;;;;;;5163788;28;20132;-74
2021/01/13 01:35:01;;;;;;;15.52;14.43;;;1.50;84.30;;;;;;5164512;28;20073;-74
2021/01/13 01:37:36;;;;;;;15.95;14.85;;;1.50;84.00;;;;;;5164012;28;20089;-74
2021/01/13 01:40:11;;;;;;;15.95;14.85;;;1.50;83.70;;;;;;5166554;28;20531;-75
2021/01/13 01:42:46;;;;;;;15.63;14.52;;;1.50;84.00;;;;;;5151776;28;20051;-75
2021/01/13 01:45:21;;;;;;;16.23;15.13;;;1.50;83.90;;;;;;5163054;28;20105;-75
2021/01/13 01:48:14;;;;;;;15.23;14.20;;;1.50;83.80;;;;;;5164444;28;20042;-74
2021/01/13 01:50:47;;;;;;;16.08;14.98;;;1.50;83.60;;;;;;5166169;28;20042;-75
2021/01/13 01:53:42;;;;;;;16.30;15.20;;;1.50;83.90;;;;;;5163785;28;20108;-75
2021/01/13 01:56:25;;;;;;;15.82;14.73;;;1.50;84.40;;;;;;5151022;28;20090;-75
2021/01/13 01:59:01;;;;;;;16.52;15.32;;;1.40;85.30;;;;;;5164785;28;20045;-76
2021/01/13 02:01:42;;;;;;;15.93;14.82;;;1.30;85.30;;;;;;5164442;28;20042;-76
2021/01/13 02:04:27;;;;;;;16.00;14.90;;;1.30;85.00;;;;;;5166585;28;20051;-75
2021/01/13 02:06:58;;;;;;;15.95;14.85;;;1.20;85.20;;;;;;5165674;28;20041;-75
2021/01/13 02:09:30;;;;;;;16.15;14.95;;;1.20;85.30;;;;;;5164746;28;20119;-75
2021/01/13 02:12:13;;;;;;;17.02;15.82;;;1.30;85.10;;;;;;5162195;28;20046;-75
2021/01/13 02:14:44;;;;;;;15.93;14.82;;;1.30;84.80;;;;;;5163882;28;20417;-75
2021/01/13 02:17:31;;;;;;;15.93;14.82;;;1.30;84.50;;;;;;5164981;28;20587;-75
2021/01/13 02:20:13;;;;;;;16.15;15.05;;;1.40;84.40;;;;;;5163463;28;20165;-75
2021/01/13 02:22:54;;;;;;;15.73;14.63;;;1.40;84.40;;;;;;5165025;28;20046;-75
2021/01/13 02:25:51;;;;;;;15.68;14.57;;;1.40;84.20;;;;;;5161774;28;20567;-76
2021/01/13 02:28:26;;;;;;;15.48;14.38;;;1.40;84.10;;;;;;5162966;28;20121;-73
2021/01/13 02:31:22;;;;;;;15.30;14.20;;;1.40;84.40;;;;;;5161244;28;20085;-74
2021/01/13 02:34:17;;;;;;;15.23;14.18;;;1.30;85.10;;;;;;5163850;28;20042;-78
2021/01/13 02:37:23;;;;;;;16.05;14.95;;;1.30;85.00;;;;;;5162998;28;20057;-78
2021/01/13 02:39:56;;;;;;;15.35;14.35;;;1.30;84.60;;;;;;5160443;28;20050;-77
2021/01/13 02:42:33;;;;;;;14.90;13.90;;;1.30;84.30;;;;;;5164915;28;20176;-77
2021/01/13 02:45:08;;;;;;;15.65;14.65;;;1.30;84.10;;;;;;5165005;28;20034;-78
2021/01/13 02:48:02;;;;;;;15.77;14.68;;;1.30;84.20;;;;;;5146621;28;20057;-77
2021/01/13 02:50:40;;;;;;;15.88;14.77;;;1.30;84.10;;;;;;5143705;28;20108;-78
2021/01/13 02:53:14;;;;;;;15.10;14.00;;;1.30;84.10;;;;;;5161253;28;20074;-77
2021/01/13 02:55:48;;;;;;;15.38;14.27;;;1.30;82.30;;;;;;5163611;28;20050;-76
2021/01/13 02:58:20;;;;;;;14.60;13.60;;;1.30;81.10;;;;;;5161167;28;20054;-77
2021/01/13 03:00:54;;;;;;;14.80;13.80;;;1.20;77.50;;;;;;5168215;28;20579;-76
2021/01/13 03:03:29;;;;;;;14.10;13.10;;;1.30;79.30;;;;;;5163159;28;20052;-77
2021/01/13 03:06:04;;;;;;;14.65;13.55;;;1.30;80.10;;;;;;5165148;28;20503;-77
2021/01/13 03:08:45;;;;;;;15.00;14.00;;;1.30;80.00;;;;;;5161151;28;20317;-77
2021/01/13 03:11:23;;;;;;;15.00;14.00;;;1.30;80.90;;;;;;5159976;28;20512;-78
2021/01/13 03:14:03;;;;;;;15.55;14.35;;;1.30;81.00;;;;;;5162179;28;20085;-76
2021/01/13 03:16:36;;;;;;;;;;;1.20;80.30;;;;;;5150176;28;20045;-78
2021/01/13 03:19:22;;;;;;;15.15;14.15;;;1.30;80.00;;;;;;5161596;28;20560;-76
2021/01/13 03:22:04;;;;;;;15.02;13.93;;;1.30;79.30;;;;;;5163318;28;20231;-76
2021/01/13 03:25:00;;;;;;;14.27;13.27;;;1.20;79.40;;;;;;5142494;28;20288;-75
2021/01/13 03:27:34;;;;;;;14.50;13.50;;;1.10;76.60;;;;;;5161564;28;20538;-75
2021/01/13 03:30:07;;;;;;;14.32;13.32;;;1.10;76.90;;;;;;5159755;28;20543;-75
2021/01/13 03:32:57;;;;;;;14.77;13.77;;;1.10;77.00;;;;;;5146298;28;20058;-76
2021/01/13 03:35:36;;;;;;;14.65;13.65;;;1.10;78.80;;;;;;5164435;28;20065;-75
2021/01/13 03:38:19;;;;;;;14.93;13.82;;;1.10;78.60;;;;;;5159273;28;20050;-74
2021/01/13 03:40:50;;;;;;;14.15;13.15;;;1.10;78.50;;;;;;5165626;28;20042;-75
2021/01/13 03:43:23;;;;;;;13.63;12.73;;;1.10;79.40;;;;;;5161403;28;20038;-75
2021/01/13 03:45:55;;;;;;;13.93;12.93;;;1.10;79.50;;;;;;5162482;28;20053;-74
2021/01/13 03:48:40;;;;;;;13.95;12.95;;;1.10;78.80;;;;;;5161412;28;20270;-75
2021/01/13 03:51:49;;;;;;;14.10;13.10;;;1.10;78.60;;;;;;5161061;28;20042;-76
2021/01/13 03:54:24;;;;;;;13.85;12.85;;;1.10;78.30;;;;;;5160885;28;20144;-76
2021/01/13 03:57:07;;;;;;;13.77;12.77;;;1.10;77.50;;;;;;5162494;28;20050;-75
2021/01/13 03:59:55;;;;;;;14.20;13.20;;;1.00;77.00;;;;;;5146902;28;20139;-75
2021/01/13 04:02:42;;;;;;;14.10;13.10;;;1.00;78.40;;;;;;5160648;28;20049;-76
2021/01/13 04:05:21;;;;;;;14.70;13.70;;;1.10;78.90;;;;;;5144674;28;20257;-76
2021/01/13 04:07:55;;;;;;;14.25;13.25;;;1.10;78.70;;;;;;5160708;28;20038;-75
2021/01/13 04:10:26;;;;;;;14.70;13.70;;;1.00;78.90;;;;;;5163104;28;20050;-75
2021/01/13 04:13:14;;;;;;;15.10;14.00;;;1.00;79.20;;;;;;5151594;28;20077;-76
2021/01/13 04:15:51;;;;;;;16.25;15.05;;;0.90;79.40;;;;;;5143492;28;20050;-75
2021/01/13 04:18:22;;;;;;;14.23;13.23;;;1.00;79.30;;;;;;5161224;28;20079;-76
2021/01/13 04:20:55;;;;;;;15.38;14.27;;;1.00;79.50;;;;;;5160715;28;20038;-76
2021/01/13 04:23:26;;;;;;;13.85;12.85;;;1.00;79.50;;;;;;5162406;28;20046;-75
2021/01/13 04:25:59;;;;;;;14.13;13.13;;;1.00;79.50;;;;;;5162348;28;20393;-76
2021/01/13 04:28:31;;;;;;;14.60;13.60;;;1.00;79.00;;;;;;5159196;28;20050;-75
2021/01/13 04:31:03;;;;;;;14.38;13.38;;;1.00;79.10;;;;;;5162934;28;20073;-76
2021/01/13 04:33:35;;;;;;;14.70;13.65;;;1.00;79.00;;;;;;5162043;28;20050;-76
2021/01/13 04:36:07;;;;;;;14.30;13.30;;;1.00;77.70;;;;;;5160565;28;20046;-77
2021/01/13 04:38:39;;;;;;;14.27;13.27;;;1.00;77.60;;;;;;5162029;28;20184;-75
2021/01/13 04:41:12;;;;;;;14.32;13.32;;;1.00;76.00;;;;;;5163082;28;20054;-75
2021/01/13 04:43:53;;;;;;;14.32;13.32;;;0.90;76.00;;;;;;5147776;28;20042;-75
2021/01/13 04:46:32;;;;;;;;;;;0.90;76.20;;;;;;5163936;28;20081;-74
2021/01/13 04:49:07;;;;;;;13.60;12.63;;;0.90;76.80;;;;;;5159588;28;19988;-75
2021/01/13 04:51:40;;;;;;;12.93;12.02;;;0.90;74.60;;;;;;5151472;28;20111;-75
2021/01/13 04:54:17;;;;;;;13.60;12.60;;;0.80;74.50;;;;;;5161371;28;20575;-75
2021/01/13 04:57:10;;;;;;;13.60;12.60;;;0.80;74.90;;;;;;5146696;28;20050;-75
2021/01/13 05:00:03;;;;;;;13.25;12.35;;;0.80;75.80;;;;;;5162234;28;20130;-74
2021/01/13 05:02:43;;;;;;;14.00;13.00;;;0.80;73.40;;;;;;5161907;28;20056;-75
2021/01/13 05:05:19;;;;;;;;;;;0.70;75.80;;;;;;5163699;28;20054;-74
2021/01/13 05:08:26;;;;;;;13.90;12.90;;;0.70;76.60;;;;;;5161484;28;19945;-75
2021/01/13 05:11:09;;;;;;;14.10;13.10;;;0.80;75.90;;;;;;5163433;28;20136;-75
2021/01/13 05:13:45;;;;;;;14.40;13.30;;;0.70;75.30;;;;;;5157278;28;20042;-74
2021/01/13 05:16:17;;;;;;;15.85;14.45;;;0.80;74.70;;;;;;5164019;28;20046;-76
2021/01/13 05:18:55;;;;;;;15.07;13.68;;;0.80;75.00;;;;;;5161752;28;20038;-75
2021/01/13 05:21:28;;;;;;;13.85;12.75;;;0.80;74.80;;;;;;5163190;28;20060;-74
2021/01/13 05:23:59;;;;;;;14.52;13.43;;;0.80;73.70;;;;;;5167892;28;20140;-74
2021/01/13 05:26:36;;;;;;;14.18;13.07;;;0.80;75.40;;;;;;5162897;28;20038;-74
2021/01/13 05:29:36;;;;;;;14.45;13.35;;;0.80;75.40;;;;;;5161273;28;20532;-75
2021/01/13 05:32:09;;;;;;;14.10;13.10;;;0.80;75.10;;;;;;5163204;28;20089;-76
2021/01/13 05:34:45;;;;;;;13.63;12.63;;;0.80;75.50;;;;;;5145001;28;20289;-76
2021/01/13 05:37:18;;;;;;;13.75;12.68;;;0.80;74.50;;;;;;5160759;28;20090;-76
2021/01/13 05:39:51;;;;;;;13.80;12.70;;;0.80;73.70;;;;;;5161624;28;20038;-76
2021/01/13 05:42:22;;;;;;;13.90;12.90;;;0.80;74.30;;;;;;5158927;28;20046;-75
2021/01/13 05:44:57;;;;;;;13.73;12.63;;;0.70;75.20;;;;;;5165906;28;20144;-75
2021/01/13 05:47:51;;;;;;;13.52;12.52;;;0.70;76.00;;;;;;5167037;28;20049;-75
2021/01/13 05:50:24;;;;;;;14.75;13.63;;;0.70;73.90;;;;;;5163694;28;20313;-75
2021/01/13 05:52:56;;;;;;;13.80;12.80;;;0.60;74.30;;;;;;5164604;28;20041;-75
2021/01/13 05:55:27;;;;;;;13.73;12.73;;;0.60;72.00;;;;;;5163003;28;20096;-75
2021/01/13 05:58:04;;;;;;;13.75;12.65;;;0.50;68.20;;;;;;5162184;28;20046;-75
2021/01/13 06:00:36;;;;;;;12.90;12.00;;;0.50;72.40;;;;;;5162359;28;20046;-76
2021/01/13 06:03:11;;;;;;;12.60;11.70;;;0.60;71.20;;;;;;5162078;28;20043;-77
2021/01/13 06:05:52;;;;;;;13.50;12.40;;;0.50;72.50;;;;;;5161886;28;20417;-76
2021/01/13 06:08:30;;;;;;;12.00;11.00;;;0.50;72.50;;;;;;5167162;28;20042;-77
2021/01/13 06:11:02;;;;;;;12.30;11.20;;;0.50;71.80;;;;;;5161425;28;20132;-77
2021/01/13 06:13:35;;;;;;;13.23;12.13;;;0.50;70.20;;;;;;5160799;28;20042;-77
2021/01/13 06:16:07;;;;;;;12.75;11.75;;;0.50;71.30;;;;;;5159393;28;20062;-76
2021/01/13 06:18:39;;;;;;;12.73;11.73;;;0.60;73.50;;;;;;5162953;28;20112;-76
2021/01/13 06:21:13;;;;;;;12.73;11.73;;;0.50;73.70;;;;;;5161999;28;20052;-76
2021/01/13 06:23:50;;;;;;;12.38;11.38;;;0.50;72.10;;;;;;5163723;28;20063;-76
2021/01/13 06:26:22;;;;;;;12.55;11.55;;;0.50;70.30;;;;;;5160866;28;20038;-76
2021/01/13 06:29:18;;;;;;;12.48;11.48;;;0.50;72.10;;;;;;5163021;28;20050;-76
2021/01/13 06:31:57;;;;;;;12.73;11.80;;;0.50;73.50;;;;;;5159829;28;20524;-77
2021/01/13 06:34:30;;;;;;;12.30;11.30;;;0.50;72.10;;;;;;5156265;28;20138;-75
2021/01/13 06:37:07;;;;;;;12.77;11.77;;;0.50;71.60;;;;;;5154732;28;20038;-76
2021/01/13 06:39:40;;;;;;;12.05;11.05;;;0.60;71.90;;;;;;5159042;28;20034;-76
2021/01/13 06:42:12;;;;;;;12.80;11.80;;;0.60;71.60;;;;;;5157952;28;20083;-75
2021/01/13 06:44:48;;;;;;;12.40;11.43;;;0.50;72.00;;;;;;5159860;28;20046;-75
2021/01/13 06:47:19;;;;;;;12.85;11.90;;;0.40;70.10;;;;;;5155855;28;20034;-76
2021/01/13 06:49:51;;;;;;;12.45;11.45;;;0.40;70.50;;;;;;5156978;28;20077;-75
2021/01/13 06:52:33;;;;;;;12.57;11.68;;;0.40;70.70;;;;;;5160931;28;20046;-76
2021/01/13 06:55:09;;;;;;;12.40;11.40;;;0.40;71.20;;;;;;5159035;28;20050;-76
2021/01/13 06:57:41;;;;;;;12.38;11.30;;;0.40;72.50;;;;;;5157719;28;20045;-75
2021/01/13 07:00:21;;;;;;;12.30;11.30;;;0.40;72.00;;;;;;5152045;28;20544;-77
2021/01/13 07:02:52;;;;;;;12.35;11.35;;;0.40;72.10;;;;;;5167084;28;20036;-76
2021/01/13 07:05:33;;;;;;;10.98;10.15;;;0.30;72.60;;;;;;5167509;28;20053;-74
2021/01/13 07:08:07;;;;;;;12.30;11.30;;;0.30;73.00;;;;;;5161542;28;20092;-75
2021/01/13 07:10:38;;;;;;;11.45;10.55;;;0.30;71.50;;;;;;5161145;28;20167;-75
2021/01/13 07:13:13;;;;;;;11.60;10.60;;;0.20;68.90;;;;;;5171070;28;20073;-76
2021/01/13 07:15:45;;;;;;;11.43;10.45;;;0.30;70.20;;;;;;5150480;28;20092;-76
2021/01/13 07:18:16;;;;;;;11.30;10.45;;;0.30;71.20;;;;;;5163699;28;20062;-76
2021/01/13 07:20:48;;;;;;;12.32;11.32;;;0.30;70.50;;;;;;5147795;28;20050;-76
2021/01/13 07:23:21;;;;;;;11.75;10.85;;;0.30;71.30;;;;;;5162927;28;20124;-78
2021/01/13 07:25:52;;;;;;;11.57;10.68;;;0.30;71.40;;;;;;5163852;28;20038;-74
2021/01/13 07:28:38;;;;;;;11.55;10.65;;;0.30;70.50;;;;;;5163262;28;20136;-76
2021/01/13 07:31:10;;;;;;;11.98;11.07;;;0.30;71.20;;;;;;5163796;28;20054;-74
2021/01/13 07:33:44;;;;;;;11.75;10.65;;;0.30;71.50;;;;;;5152117;28;20077;-75
2021/01/13 07:36:21;;;;;;;11.65;10.75;;;0.40;72.00;;;;;;5165581;28;20283;-75
2021/01/13 07:39:02;;;;;;;11.77;10.88;;;0.30;70.80;;;;;;5162244;28;20152;-74
2021/01/13 07:42:07;;;;;;;11.25;10.35;;;0.30;72.10;;;;;;5167968;28;20675;-76
2021/01/13 07:44:40;;;;;;;11.30;10.23;;;0.40;72.10;;;;;;5159010;28;20057;-75
2021/01/13 07:47:28;;;;;;;11.60;10.70;;;0.40;71.90;;;;;;5160586;28;20042;-76
2021/01/13 07:50:08;;;;;;;11.25;10.23;;;0.40;69.90;;;;;;5163645;28;20057;-75
2021/01/13 07:52:45;;;;;;;11.27;10.17;;;0.40;69.90;;;;;;5159896;28;20064;-74
2021/01/13 07:55:24;;;;;;;11.10;10.20;;;0.40;69.90;;;;;;5162820;28;20789;-75
2021/01/13 07:57:58;;;;;;;11.20;10.30;;;0.30;68.30;;;;;;5163399;28;20064;-73
2021/01/13 08:00:31;;;;;;;11.27;10.40;;;0.30;66.10;;;;;;5161079;28;20045;-74
2021/01/13 08:03:18;;;;;;;11.52;10.52;;;0.30;68.20;;;;;;5161833;28;20249;-75
2021/01/13 08:06:27;;;;;;;11.02;10.13;;;0.40;68.70;;;;;;5165551;28;20311;-75
2021/01/13 08:09:04;;;;;;;10.70;9.90;;;0.40;69.10;;;;;;5160124;28;20145;-75
2021/01/13 08:12:05;;;;;;;10.85;9.95;;;0.30;66.90;;;;;;5165234;28;20673;-74
2021/01/13 08:15:15;;;;;;;11.45;10.55;;;0.40;68.70;;;;;;5166156;28;20052;-75
2021/01/13 08:18:12;;;;;;;11.27;10.30;;;0.40;68.50;;;;;;5159414;28;20269;-75
2021/01/13 08:21:15;;;;;;;11.85;10.85;;;0.50;69.90;;;;;;5160489;28;20057;-74
2021/01/13 08:24:06;;;;;;;11.25;10.32;;;0.50;66.80;;;;;;5160621;28;20065;-76
2021/01/13 08:26:38;;;;;;;11.88;10.85;;;0.40;69.20;;;;;;5151265;28;20112;-75
2021/01/13 08:29:18;;;;;;;11.27;10.27;;;0.40;71.80;;;;;;5159918;28;20626;-73
2021/01/13 08:32:02;;;;;;;10.80;9.90;;;0.30;72.60;;;;;;5161162;28;20136;-73
2021/01/13 08:34:40;;;;;;;10.68;9.88;;;0.30;73.10;;;;;;5164840;28;20041;-74
2021/01/13 08:37:13;;;;;;;10.90;9.95;;;0.20;73.00;;;;;;5155405;28;20050;-75
2021/01/13 08:39:45;;;;;;;10.52;9.63;;;0.30;73.60;;;;;;5158247;28;20041;-74
2021/01/13 08:42:22;;;;;;;10.50;9.63;;;0.40;73.40;;;;;;5164097;28;20506;-74
2021/01/13 08:44:56;;;;;;;10.82;9.93;;;0.60;73.00;;;;;;5163192;28;20034;-75
2021/01/13 08:47:27;;;;;;;11.10;10.10;;;0.60;72.00;;;;;;5160282;28;20685;-75
2021/01/13 08:50:14;;;;;;;10.85;9.95;;;0.70;72.00;;;;;;5161055;28;20352;-76
2021/01/13 08:52:50;;;;;;;11.43;10.40;;;0.70;71.70;;;;;;5160771;28;20365;-75
2021/01/13 08:55:22;;;;;;;10.45;9.60;;;0.70;70.90;;;;;;5160964;28;20045;-74
2021/01/13 08:58:32;;;;;;;11.15;10.18;;;0.80;70.60;;;;;;5160169;28;20499;-74
2021/01/13 09:01:07;;;;;;;10.40;9.60;;;0.80;68.30;;;;;;5158686;28;20196;-75
2021/01/13 09:03:41;;;;;;;9.93;9.13;;;0.80;69.10;;;;;;5151804;28;20088;-74
2021/01/13 09:06:24;;;;;;;10.07;9.25;;;0.80;69.00;;;;;;5161540;28;20055;-75
2021/01/13 09:09:09;;;;;;;10.52;9.73;;;0.80;70.50;;;;;;5166160;28;20077;-72
2021/01/13 09:11:41;;;;;;;10.88;10.07;;;0.90;70.40;;;;;;5162472;28;20045;-75
2021/01/13 09:14:24;;;;;;;10.57;9.75;;;1.00;70.70;;;;;;5161112;28;20042;-73
2021/01/13 09:16:56;;;;;;;11.43;10.52;;;1.10;71.70;;;;;;5160797;28;20054;-74
2021/01/13 09:19:31;;;;;;;11.90;10.80;;;1.00;71.00;;;;;;5165530;28;20157;-73
2021/01/13 09:22:05;;;;;;;12.63;11.52;;;0.90;71.60;;;;;;5166998;28;20042;-73
2021/01/13 09:24:39;;;;;;;11.80;10.80;;;0.80;71.80;;;;;;5166508;28;20096;-74
2021/01/13 09:27:12;;;;;;;12.15;11.15;;;0.70;72.40;;;;;;5163827;28;20046;-73
2021/01/13 09:29:52;;;;;;;12.50;11.40;;;0.80;73.00;;;;;;5165365;28;20038;-73
2021/01/13 09:32:24;;;;;;;12.02;10.93;;;0.70;72.90;;;;;;5166384;28;20153;-73
2021/01/13 09:34:55;;;;;;;12.15;11.13;;;0.70;73.10;;;;;;5159632;28;20033;-73
2021/01/13 09:37:27;;;;;;;12.90;11.60;;;0.80;73.40;;;;;;5167045;28;20046;-74
2021/01/13 09:40:01;;;;;;;12.45;11.45;;;1.00;73.40;;;;;;5167653;28;20104;-74
2021/01/13 09:42:37;;;;;;;12.85;11.73;;;1.10;73.00;;;;;;5164359;28;20056;-74
2021/01/13 09:45:09;;;;;;;12.57;11.48;;;1.20;72.80;;;;;;5128598;28;20065;-74
2021/01/13 09:47:41;;;;;;;12.48;11.38;;;1.30;72.60;;;;;;5150620;28;20527;-74
2021/01/13 09:50:15;;;;;;;12.93;11.82;;;1.40;72.50;;;;;;5164622;28;20594;-73
2021/01/13 09:52:51;;;;;;;12.98;11.88;;;1.60;72.70;;;;;;5154988;28;20688;-73
2021/01/13 09:55:23;;;;;;;14.15;12.75;;;1.70;72.50;;;;;;5165202;28;20505;-72
2021/01/13 09:58:14;;;;;;;14.90;13.57;;;1.90;72.00;;;;;;5167074;28;20053;-72
2021/01/13 10:00:46;;;;;;;16.92;15.13;;;2.10;72.00;;;;;;5167906;28;20135;-72
2021/01/13 10:03:18;;;;;;;14.65;13.25;;;2.20;70.40;;;;;;5166944;28;20072;-73
2021/01/13 10:05:51;;;;;;;14.10;12.90;;;2.20;70.30;;;;;;5165643;28;20053;-73
2021/01/13 10:08:30;;;;;;;13.68;12.63;;;2.30;71.00;;;;;;5168703;28;20034;-75
2021/01/13 10:11:02;;;;;;;14.30;13.18;;;2.30;70.30;;;;;;5165336;28;20216;-75
2021/01/13 10:13:38;;;;;;;13.63;12.32;;;2.40;70.20;;;;;;5164683;28;20053;-76
2021/01/13 10:16:12;;;;;;;14.68;13.48;;;2.40;70.20;;;;;;5155315;28;20050;-76
2021/01/13 10:18:56;;;;;;;14.23;12.90;;;2.40;70.40;;;;;;5161160;28;20049;-75
2021/01/13 10:21:56;;;;;;;14.48;13.07;;;2.40;69.50;;;;;;5164580;28;20077;-76
2021/01/13 10:24:31;;;;;;;14.05;12.70;;;2.50;70.30;;;;;;5163867;28;20062;-74
2021/01/13 10:27:02;;;;;;;14.25;13.05;;;2.40;68.50;;;;;;5164364;28;20045;-74
2021/01/13 10:29:34;;;;;;;13.60;12.50;;;2.20;68.40;;;;;;5147230;28;20336;-74
2021/01/13 10:32:06;;;;;;;13.32;12.13;;;2.00;69.60;;;;;;5161821;28;20100;-76
2021/01/13 10:34:38;;;;;;;13.57;12.48;;;1.90;71.40;;;;;;5163193;28;20132;-75
2021/01/13 10:37:09;;;;;;;13.85;12.55;;;2.00;71.90;;;;;;5164269;28;20046;-74
2021/01/13 10:39:41;;;;;;;13.75;12.65;;;2.00;72.00;;;;;;5162467;28;20526;-74
2021/01/13 10:42:13;;;;;;;13.63;12.50;;;2.10;71.90;;;;;;5154273;28;20120;-75
2021/01/13 10:44:45;;;;;;;13.40;12.30;;;2.10;70.90;;;;;;5164456;28;20042;-74
2021/01/13 10:47:16;;;;;;;13.15;12.05;;;2.20;71.50;;;;;;5160339;28;20046;-75
2021/01/13 10:49:58;;;;;;;13.95;12.75;;;2.40;70.80;;;;;;5145160;28;20061;-74
2021/01/13 10:52:39;;;;;;;14.20;12.90;;;2.40;69.40;;;;;;5162918;28;20133;-73
2021/01/13 10:55:16;;;;;;;14.60;13.10;;;2.50;69.80;;;;;;5160748;28;20718;-75
2021/01/13 10:57:51;;;;;;;13.55;12.45;;;2.50;70.20;;;;;;5160669;28;20104;-75
2021/01/13 11:00:25;;;;;;;14.20;12.90;;;2.50;70.00;;;;;;5164032;28;20527;-75
2021/01/13 11:02:58;;;;;;;17.30;15.60;;;2.40;68.90;;;;;;5162945;28;20042;-72
2021/01/13 11:05:38;;;;;;;14.85;13.35;;;2.40;69.40;;;;;;5165257;28;20519;-73
2021/01/13 11:08:13;;;;;;;14.60;13.15;;;2.40;69.20;;;;;;5163469;28;20066;-73
2021/01/13 11:10:45;;;;;;;14.65;13.02;;;2.40;68.70;;;;;;5164330;28;20045;-73
2021/01/13 11:13:16;;;;;;;21.80;19.20;;;2.40;66.20;;;;;;5161556;28;20050;-74
2021/01/13 11:15:48;;;;;;;13.98;12.60;;;2.30;67.80;;;;;;5164181;28;20079;-75
2021/01/13 11:18:20;;;;;;;14.20;12.90;;;2.10;68.50;;;;;;5166822;28;20100;-75
2021/01/13 11:20:55;;;;;;;15.70;14.10;;;2.00;66.40;;;;;;5162883;28;20620;-74
2021/01/13 11:23:27;;;;;;;12.30;11.27;;;1.90;67.30;;;;;;5162935;28;20567;-74
2021/01/13 11:25:59;;;;;;;10.90;10.00;;;1.80;63.90;;;;;;5160489;28;20045;-74
2021/01/13 11:28:31;;;;;;;11.65;10.75;;;1.70;64.50;;;;;;5146752;28;20054;-74
2021/01/13 11:31:04;;;;;;;11.50;10.63;;;1.70;64.20;;;;;;5168869;28;20106;-75
2021/01/13 11:33:44;;;;;;;10.55;9.75;;;1.80;65.80;;;;;;5161602;28;20057;-75
2021/01/13 11:36:29;;;;;;;11.60;10.70;;;1.80;63.20;;;;;;5162283;28;20100;-75
2021/01/13 11:39:04;;;;;;;10.88;9.98;;;1.90;65.80;;;;;;5167011;28;20045;-74
2021/01/13 11:42:15;;;;;;;11.68;10.68;;;1.70;61.20;;;;;;5163549;28;20053;-75
2021/01/13 11:45:05;;;;;;;10.80;9.90;;;1.80;61.60;;;;;;5159169;28;20609;-74
2021/01/13 11:47:42;;;;;;;10.23;9.43;;;1.80;63.50;;;;;;5145324;28;21314;-74
2021/01/13 11:50:16;;;;;;;11.40;10.50;;;1.80;62.10;;;;;;5167502;28;20115;-74
2021/01/13 11:52:53;;;;;;;10.75;9.95;;;2.10;63.20;;;;;;5152192;28;20058;-74
2021/01/13 11:55:29;;;;;;;10.98;9.98;;;2.20;63.40;;;;;;5164661;28;20817;-74
2021/01/13 11:58:00;;;;;;;10.95;10.05;;;2.10;63.70;;;;;;5160680;28;20057;-74
2021/01/13 12:00:32;;;;;;;10.73;9.93;;;2.10;64.50;;;;;;5151057;28;20128;-73
2021/01/13 12:03:04;;;;;;;11.27;10.38;;;2.30;64.30;;;;;;5141886;28;20058;-74
2021/01/13 12:05:38;;;;;;;12.15;10.85;;;2.40;62.50;;;;;;5149340;28;20137;-73
2021/01/13 12:08:15;;;;;;;11.20;10.18;;;2.20;64.30;;;;;;5160151;28;20034;-74
2021/01/13 12:10:53;;;;;;;10.52;9.63;;;2.30;62.60;;;;;;5161260;28;20088;-73
2021/01/13 12:13:27;;;;;;;10.52;9.70;;;2.40;61.20;;;;;;5162778;28;20073;-73
2021/01/13 12:15:59;;;;;;;10.40;9.60;;;2.40;62.20;;;;;;5161217;28;20053;-73
2021/01/13 12:18:30;;;;;;;10.88;9.88;;;2.50;61.70;;;;;;5148923;28;20143;-73
2021/01/13 12:21:27;;;;;;;11.20;10.30;;;2.60;61.70;;;;;;5158355;28;20078;-73
2021/01/13 12:24:13;;;;;;;12.88;11.88;;;2.70;61.80;;;;;;5150139;28;20069;-73
2021/01/13 12:26:45;;;;;;;10.60;9.80;;;2.70;60.20;;;;;;5159823;28;20400;-75
2021/01/13 12:29:18;;;;;;;11.25;10.25;;;2.70;63.10;;;;;;5160447;28;20054;-72
2021/01/13 12:31:50;;;;;;;11.43;10.52;;;2.80;63.70;;;;;;5165186;28;20137;-74
2021/01/13 12:34:24;;;;;;;11.02;10.13;;;3.00;63.10;;;;;;5164283;28;20046;-74
2021/01/13 12:37:05;;;;;;;12.98;11.80;;;3.10;60.50;;;;;;5164693;28;20049;-73
2021/01/13 12:39:41;;;;;;;11.98;11.07;;;3.10;60.60;;;;;;5165850;28;20045;-75
2021/01/13 12:42:17;;;;;;;10.48;9.68;;;3.20;59.80;;;;;;5162884;28;20526;-75
2021/01/13 12:44:48;;;;;;;11.23;10.43;;;3.10;60.00;;;;;;5163686;28;20046;-74
2021/01/13 12:47:25;;;;;;;11.98;11.07;;;3.20;61.90;;;;;;5142085;28;20500;-74
2021/01/13 12:49:56;;;;;;;12.18;11.27;;;3.20;59.80;;;;;;5161833;28;20049;-75
2021/01/13 12:52:28;;;;;;;12.15;11.13;;;3.20;61.20;;;;;;5161685;28;20050;-75
2021/01/13 12:54:59;;;;;;;11.20;10.30;;;3.10;60.90;;;;;;5161576;28;20131;-73
2021/01/13 12:57:32;;;;;;;11.90;11.00;;;3.00;59.90;;;;;;5164111;28;20097;-75
2021/01/13 13:00:05;;;;;;;12.43;11.32;;;3.00;58.70;;;;;;5141488;28;20042;-74
2021/01/13 13:02:38;;;;;;;11.48;10.57;;;2.90;60.30;;;;;;5163152;28;20143;-75
2021/01/13 13:05:10;;;;;;;12.02;11.10;;;2.80;59.20;;;;;;5163136;28;20046;-74
2021/01/13 13:07:42;;;;;;;11.70;10.80;;;2.90;60.80;;;;;;5161399;28;20038;-74
2021/01/13 13:10:15;;;;;;;11.68;10.75;;;3.00;61.30;;;;;;5163816;28;20042;-74
2021/01/13 13:12:47;;;;;;;11.30;10.40;;;3.00;61.60;;;;;;5165364;28;20046;-74
2021/01/13 13:15:18;;;;;;;11.85;10.95;;;3.00;60.50;;;;;;5162794;28;20049;-75
2021/01/13 13:17:50;;;;;;;11.43;10.50;;;2.90;60.50;;;;;;5160340;28;20390;-76
2021/01/13 13:20:21;;;;;;;11.88;10.98;;;2.70;60.50;;;;;;5147496;28;20145;-73
2021/01/13 13:22:53;;;;;;;12.05;11.15;;;2.50;61.70;;;;;;5165196;28;20071;-74
2021/01/13 13:25:24;;;;;;;11.20;10.35;;;2.50;61.70;;;;;;5166569;28;20038;-75
2021/01/13 13:27:56;;;;;;;11.73;10.82;;;2.60;62.00;;;;;;5151795;28;20041;-73